Tropical Cyclones
[Index]
Main Index Home Page Stock Weather Photos Extreme Storms Discussion Storm News and Storm Chasing Reports Tropical Cyclones / Hurricanes / Typhoons Weather Data and Links Wild Fires / Bushfires Weather Observation Techniques Weather Picture Catalogue Tornado Pictures and Reports Stock Video Footage and DVDs for sale
Season 1983-1984 Tropical Cyclone LANCE Track Map
Season 1983-1984 Summaries: [BoM-AU] [JTWC-AU] [JTWC-SIO] [JTWC-SPAC] [JTWC-SH]
<<- Previous TC | JTWC 1983-1984 Season | Next TC ->>

click for intensity scale information  Lat/long Grid: Show Hide

 Date Labels: Show Hide

Joint Typhoon Warning Centre Cyclone Data

Name: LANCE

03 Apr 1984 00:00 UTC to 08 Apr 1984 12:00 UTC

    date/time    lat    long     hPa   cat  kts
1984-04-03 00   13.6   155.9                  25          
1984-04-03 06   13.4   155.4                  25          
1984-04-03 12   13.3   154.9                  25          
1984-04-03 18   13.3   154.4                  25          
1984-04-04 00   13.3   153.9                  25          
1984-04-04 06   12.9   153.1                  25          
1984-04-04 12   12.9   152.2                  25          
1984-04-04 18   13.6   151.8                  25          
1984-04-05 00   14.3   151.6                  30          
1984-04-05 06   15.0   151.8                  30          
1984-04-05 12   15.7   152.0                  35          
1984-04-05 18   16.3   151.5                  35          
1984-04-06 00   16.9   151.1            1     40          
1984-04-06 06   17.6   151.4            1     40          
1984-04-06 12   18.4   151.9                  35          
1984-04-06 18   19.2   152.6                  35          
1984-04-07 00   20.1   153.2                  35          
1984-04-07 06   21.6   153.6                  35          
1984-04-07 12   23.4   153.9                  35          
1984-04-07 18   24.8   154.1                  35          
1984-04-08 00   26.0   154.3            1     40          
1984-04-08 06   26.8   154.3            1     40          
1984-04-08 12   27.3   154.0            1     40          
Winds are 1-min average.

Tropical cyclone tracks developed by Michael Bath using data from the Joint Typhoon Warning Centre Best Tracks and Google Maps.


[Australian Severe Weather index] [Copyright Notice] [Email Contacts] [Search This Site] [Privacy Policy]
Document: tropical_cyclone_lance.htm Updated: 18 September 2016